sensor_id;sensor_type;location;lat;lon;timestamp;pressure;altitude;pressure_sealevel;temperature;humidity
76611;BME280;65503;48.534;9.062;2024-01-15T00:02:00;95957.91;;;0.98;56.57
76611;BME280;65503;48.534;9.062;2024-01-15T00:04:27;95952.69;;;0.92;55.94
76611;BME280;65503;48.534;9.062;2024-01-15T00:06:53;95944.69;;;0.80;56.84
76611;BME280;65503;48.534;9.062;2024-01-15T00:09:20;95944.78;;;1.00;56.01
76611;BME280;65503;48.534;9.062;2024-01-15T00:11:46;95946.28;;;0.68;57.04
76611;BME280;65503;48.534;9.062;2024-01-15T00:14:13;95952.63;;;0.65;57.69
76611;BME280;65503;48.534;9.062;2024-01-15T00:16:40;95944.72;;;0.87;57.11
76611;BME280;65503;48.534;9.062;2024-01-15T00:19:08;95934.81;;;0.97;56.68
76611;BME280;65503;48.534;9.062;2024-01-15T00:21:34;95932.34;;;0.75;57.29
76611;BME280;65503;48.534;9.062;2024-01-15T00:24:01;95941.53;;;0.85;57.48
76611;BME280;65503;48.534;9.062;2024-01-15T00:26:27;95939.38;;;0.47;57.57
76611;BME280;65503;48.534;9.062;2024-01-15T00:28:54;95939.53;;;0.73;57.29
76611;BME280;65503;48.534;9.062;2024-01-15T00:31:20;95943.88;;;0.66;57.63
76611;BME280;65503;48.534;9.062;2024-01-15T00:33:47;95941.53;;;0.78;57.89
76611;BME280;65503;48.534;9.062;2024-01-15T00:36:13;95932.13;;;0.70;57.54
76611;BME280;65503;48.534;9.062;2024-01-15T00:38:41;95940.72;;;0.77;57.44
76611;BME280;65503;48.534;9.062;2024-01-15T00:41:07;95941.38;;;0.45;58.40
76611;BME280;65503;48.534;9.062;2024-01-15T00:43:34;95940.22;;;0.54;58.20
76611;BME280;65503;48.534;9.062;2024-01-15T00:46:03;95928.34;;;0.66;58.25
76611;BME280;65503;48.534;9.062;2024-01-15T00:48:31;95925.75;;;0.66;58.15
76611;BME280;65503;48.534;9.062;2024-01-15T00:50:58;95934.38;;;0.87;57.89
76611;BME280;65503;48.534;9.062;2024-01-15T00:53:25;95928.81;;;0.90;57.46
76611;BME280;65503;48.534;9.062;2024-01-15T00:55:52;95923.22;;;0.93;57.63
76611;BME280;65503;48.534;9.062;2024-01-15T00:58:18;95923.28;;;1.12;57.41
76611;BME280;65503;48.534;9.062;2024-01-15T01:00:45;95920.09;;;1.17;56.74
76611;BME280;65503;48.534;9.062;2024-01-15T01:03:12;95909.75;;;1.17;56.65
76611;BME280;65503;48.534;9.062;2024-01-15T01:05:39;95918.13;;;1.12;57.03
76611;BME280;65503;48.534;9.062;2024-01-15T01:08:05;95911.72;;;1.15;57.41
76611;BME280;65503;48.534;9.062;2024-01-15T01:10:32;95916.50;;;1.11;57.26
76611;BME280;65503;48.534;9.062;2024-01-15T01:12:58;95920.53;;;1.14;57.30
76611;BME280;65503;48.534;9.062;2024-01-15T01:15:25;95914.53;;;1.07;57.65
76611;BME280;65503;48.534;9.062;2024-01-15T01:17:51;95924.44;;;1.03;57.83
76611;BME280;65503;48.534;9.062;2024-01-15T01:20:18;95933.56;;;0.79;58.27
76611;BME280;65503;48.534;9.062;2024-01-15T01:22:45;95926.78;;;0.78;58.64
76611;BME280;65503;48.534;9.062;2024-01-15T01:25:11;95928.00;;;0.82;58.46
76611;BME280;65503;48.534;9.062;2024-01-15T01:27:38;95929.16;;;0.73;59.02
76611;BME280;65503;48.534;9.062;2024-01-15T01:30:05;95935.97;;;0.88;58.29
76611;BME280;65503;48.534;9.062;2024-01-15T01:32:32;95939.75;;;0.92;58.20
76611;BME280;65503;48.534;9.062;2024-01-15T01:34:59;95933.78;;;0.85;58.79
76611;BME280;65503;48.534;9.062;2024-01-15T01:37:26;95936.84;;;1.08;58.18
76611;BME280;65503;48.534;9.062;2024-01-15T01:39:52;95934.03;;;0.96;58.04
76611;BME280;65503;48.534;9.062;2024-01-15T01:42:21;95928.84;;;0.96;58.68
76611;BME280;65503;48.534;9.062;2024-01-15T01:44:48;95933.22;;;0.96;58.58
76611;BME280;65503;48.534;9.062;2024-01-15T01:47:15;95937.44;;;0.56;59.57
76611;BME280;65503;48.534;9.062;2024-01-15T01:49:41;95923.44;;;0.91;58.85
76611;BME280;65503;48.534;9.062;2024-01-15T01:52:08;95916.22;;;0.73;59.36
76611;BME280;65503;48.534;9.062;2024-01-15T01:54:36;95921.19;;;0.68;59.83
76611;BME280;65503;48.534;9.062;2024-01-15T01:57:04;95922.31;;;0.59;60.34
76611;BME280;65503;48.534;9.062;2024-01-15T01:59:34;95921.63;;;0.78;59.43
76611;BME280;65503;48.534;9.062;2024-01-15T02:02:03;95923.53;;;0.63;60.13
76611;BME280;65503;48.534;9.062;2024-01-15T02:04:31;95930.31;;;0.64;59.85
76611;BME280;65503;48.534;9.062;2024-01-15T02:06:59;95915.59;;;0.71;59.83
76611;BME280;65503;48.534;9.062;2024-01-15T02:09:25;95914.00;;;0.70;60.24
76611;BME280;65503;48.534;9.062;2024-01-15T02:11:52;95908.88;;;0.83;59.65
76611;BME280;65503;48.534;9.062;2024-01-15T02:14:18;95907.69;;;0.93;59.58
76611;BME280;65503;48.534;9.062;2024-01-15T02:16:45;95891.34;;;0.86;59.91
76611;BME280;65503;48.534;9.062;2024-01-15T02:19:16;95902.28;;;0.81;59.59
76611;BME280;65503;48.534;9.062;2024-01-15T02:21:46;95897.09;;;0.74;60.38
76611;BME280;65503;48.534;9.062;2024-01-15T02:24:12;95886.97;;;0.79;60.04
76611;BME280;65503;48.534;9.062;2024-01-15T02:26:39;95890.72;;;0.70;60.36
76611;BME280;65503;48.534;9.062;2024-01-15T02:29:07;95893.69;;;0.67;60.40
76611;BME280;65503;48.534;9.062;2024-01-15T02:31:36;95886.63;;;0.41;61.64
76611;BME280;65503;48.534;9.062;2024-01-15T02:34:02;95883.88;;;0.50;61.30
76611;BME280;65503;48.534;9.062;2024-01-15T02:36:29;95888.03;;;0.44;61.53
76611;BME280;65503;48.534;9.062;2024-01-15T02:38:56;95888.25;;;0.08;62.37
76611;BME280;65503;48.534;9.062;2024-01-15T02:41:23;95884.31;;;0.19;62.55
76611;BME280;65503;48.534;9.062;2024-01-15T02:43:49;95875.16;;;0.10;63.07
76611;BME280;65503;48.534;9.062;2024-01-15T02:46:16;95884.72;;;0.16;63.06
76611;BME280;65503;48.534;9.062;2024-01-15T02:48:42;95892.13;;;-0.09;64.31
76611;BME280;65503;48.534;9.062;2024-01-15T02:51:09;95882.19;;;0.29;62.80
76611;BME280;65503;48.534;9.062;2024-01-15T02:53:36;95888.84;;;0.45;62.42
76611;BME280;65503;48.534;9.062;2024-01-15T02:56:03;95882.13;;;0.63;61.80
76611;BME280;65503;48.534;9.062;2024-01-15T02:58:30;95881.53;;;0.61;61.72
76611;BME280;65503;48.534;9.062;2024-01-15T03:00:57;95875.69;;;0.46;62.37
76611;BME280;65503;48.534;9.062;2024-01-15T03:03:24;95882.13;;;0.57;62.42
76611;BME280;65503;48.534;9.062;2024-01-15T03:05:51;95873.25;;;-0.10;63.61
76611;BME280;65503;48.534;9.062;2024-01-15T03:08:18;95882.72;;;0.11;64.00
76611;BME280;65503;48.534;9.062;2024-01-15T03:10:44;95877.22;;;0.27;63.13
76611;BME280;65503;48.534;9.062;2024-01-15T03:13:10;95875.72;;;0.12;63.80
76611;BME280;65503;48.534;9.062;2024-01-15T03:15:37;95877.63;;;-0.38;65.65
76611;BME280;65503;48.534;9.062;2024-01-15T03:18:04;95880.97;;;-0.44;66.12
76611;BME280;65503;48.534;9.062;2024-01-15T03:20:31;95886.13;;;-0.44;66.62
76611;BME280;65503;48.534;9.062;2024-01-15T03:22:57;95883.94;;;-0.68;66.70
76611;BME280;65503;48.534;9.062;2024-01-15T03:25:23;95884.44;;;-0.79;67.71
76611;BME280;65503;48.534;9.062;2024-01-15T03:27:50;95886.91;;;-0.71;67.57
76611;BME280;65503;48.534;9.062;2024-01-15T03:30:16;95886.53;;;-0.47;66.14
76611;BME280;65503;48.534;9.062;2024-01-15T03:32:43;95891.56;;;-0.05;65.58
76611;BME280;65503;48.534;9.062;2024-01-15T03:35:10;95891.25;;;0.05;65.51
76611;BME280;65503;48.534;9.062;2024-01-15T03:37:36;95894.03;;;0.51;63.60
76611;BME280;65503;48.534;9.062;2024-01-15T03:40:03;95892.22;;;0.45;63.67
76611;BME280;65503;48.534;9.062;2024-01-15T03:42:31;95888.91;;;0.64;63.30
76611;BME280;65503;48.534;9.062;2024-01-15T03:44:57;95886.28;;;0.51;63.03
76611;BME280;65503;48.534;9.062;2024-01-15T03:47:24;95889.41;;;0.40;63.91
76611;BME280;65503;48.534;9.062;2024-01-15T03:49:51;95895.03;;;0.50;63.78
76611;BME280;65503;48.534;9.062;2024-01-15T03:52:17;95896.91;;;0.22;64.06
76611;BME280;65503;48.534;9.062;2024-01-15T03:54:44;95893.31;;;0.70;63.22
76611;BME280;65503;48.534;9.062;2024-01-15T03:57:10;95889.56;;;0.93;62.99
76611;BME280;65503;48.534;9.062;2024-01-15T03:59:37;95886.25;;;1.25;61.59
76611;BME280;65503;48.534;9.062;2024-01-15T04:02:04;95882.66;;;1.13;61.41
76611;BME280;65503;48.534;9.062;2024-01-15T04:04:30;95884.66;;;1.37;61.34
76611;BME280;65503;48.534;9.062;2024-01-15T04:06:57;95881.34;;;0.69;63.42
76611;BME280;65503;48.534;9.062;2024-01-15T04:09:24;95875.47;;;1.15;62.05
76611;BME280;65503;48.534;9.062;2024-01-15T04:11:50;95880.84;;;1.20;62.30
76611;BME280;65503;48.534;9.062;2024-01-15T04:14:17;95881.88;;;1.45;61.45
76611;BME280;65503;48.534;9.062;2024-01-15T04:16:43;95882.66;;;1.39;61.38
76611;BME280;65503;48.534;9.062;2024-01-15T04:19:10;95890.44;;;1.52;61.27
76611;BME280;65503;48.534;9.062;2024-01-15T04:21:36;95881.88;;;1.45;61.24
76611;BME280;65503;48.534;9.062;2024-01-15T04:24:03;95878.47;;;1.38;61.85
76611;BME280;65503;48.534;9.062;2024-01-15T04:26:30;95879.88;;;1.28;62.23
76611;BME280;65503;48.534;9.062;2024-01-15T04:28:56;95881.47;;;1.48;62.06
76611;BME280;65503;48.534;9.062;2024-01-15T04:31:24;95882.06;;;1.50;61.61
76611;BME280;65503;48.534;9.062;2024-01-15T04:33:51;95880.50;;;1.36;62.19
76611;BME280;65503;48.534;9.062;2024-01-15T04:36:19;95880.25;;;1.31;62.30
76611;BME280;65503;48.534;9.062;2024-01-15T04:38:45;95877.47;;;1.39;62.65
76611;BME280;65503;48.534;9.062;2024-01-15T04:41:13;95867.91;;;1.46;62.15
76611;BME280;65503;48.534;9.062;2024-01-15T04:43:40;95859.94;;;1.41;62.01
76611;BME280;65503;48.534;9.062;2024-01-15T04:46:06;95876.09;;;1.43;62.15
76611;BME280;65503;48.534;9.062;2024-01-15T04:48:33;95865.91;;;1.48;61.90
76611;BME280;65503;48.534;9.062;2024-01-15T04:51:04;95879.28;;;1.58;61.92
76611;BME280;65503;48.534;9.062;2024-01-15T04:53:30;95877.69;;;1.57;61.73
76611;BME280;65503;48.534;9.062;2024-01-15T04:55:57;95873.09;;;1.33;63.28
76611;BME280;65503;48.534;9.062;2024-01-15T04:58:24;95862.34;;;1.36;62.42
76611;BME280;65503;48.534;9.062;2024-01-15T05:00:53;95868.31;;;1.30;63.18
76611;BME280;65503;48.534;9.062;2024-01-15T05:03:21;95876.91;;;0.50;65.92
76611;BME280;65503;48.534;9.062;2024-01-15T05:05:47;95873.56;;;0.56;66.03
76611;BME280;65503;48.534;9.062;2024-01-15T05:08:14;95865.84;;;0.82;64.52
76611;BME280;65503;48.534;9.062;2024-01-15T05:10:40;95865.53;;;1.25;63.51
76611;BME280;65503;48.534;9.062;2024-01-15T05:13:07;95854.97;;;1.46;62.78
76611;BME280;65503;48.534;9.062;2024-01-15T05:15:33;95864.72;;;1.57;62.30
76611;BME280;65503;48.534;9.062;2024-01-15T05:18:00;95861.91;;;1.00;63.60
76611;BME280;65503;48.534;9.062;2024-01-15T05:20:27;95857.88;;;0.77;65.10
76611;BME280;65503;48.534;9.062;2024-01-15T05:22:53;95851.50;;;0.73;65.46
76611;BME280;65503;48.534;9.062;2024-01-15T05:25:20;95854.75;;;1.02;64.65
76611;BME280;65503;48.534;9.062;2024-01-15T05:27:46;95850.72;;;0.86;65.86
76611;BME280;65503;48.534;9.062;2024-01-15T05:30:13;95844.34;;;0.82;65.95
76611;BME280;65503;48.534;9.062;2024-01-15T05:32:40;95848.72;;;0.81;66.26
76611;BME280;65503;48.534;9.062;2024-01-15T05:35:07;95845.91;;;0.70;66.51
76611;BME280;65503;48.534;9.062;2024-01-15T05:37:33;95845.50;;;0.66;67.04
76611;BME280;65503;48.534;9.062;2024-01-15T05:40:00;95843.53;;;0.75;67.35
76611;BME280;65503;48.534;9.062;2024-01-15T05:42:26;95843.16;;;0.98;66.19
76611;BME280;65503;48.534;9.062;2024-01-15T05:44:53;95852.69;;;0.77;67.22
76611;BME280;65503;48.534;9.062;2024-01-15T05:47:19;95849.56;;;1.02;66.03
76611;BME280;65503;48.534;9.062;2024-01-15T05:49:46;95850.72;;;0.79;66.33
76611;BME280;65503;48.534;9.062;2024-01-15T05:52:12;95848.13;;;0.79;66.67
76611;BME280;65503;48.534;9.062;2024-01-15T05:54:39;95850.78;;;1.12;65.86
76611;BME280;65503;48.534;9.062;2024-01-15T05:57:05;95847.56;;;0.91;66.01
76611;BME280;65503;48.534;9.062;2024-01-15T05:59:31;95846.56;;;1.05;65.92
76611;BME280;65503;48.534;9.062;2024-01-15T06:02:00;95842.72;;;0.61;66.97
76611;BME280;65503;48.534;9.062;2024-01-15T06:04:27;95849.34;;;0.83;66.43
76611;BME280;65503;48.534;9.062;2024-01-15T06:06:53;95864.31;;;1.08;65.72
76611;BME280;65503;48.534;9.062;2024-01-15T06:09:20;95853.91;;;0.81;65.84
76611;BME280;65503;48.534;9.062;2024-01-15T06:11:46;95858.75;;;1.24;64.83
76611;BME280;65503;48.534;9.062;2024-01-15T06:14:13;95859.84;;;0.62;66.78
76611;BME280;65503;48.534;9.062;2024-01-15T06:16:39;95856.53;;;0.95;66.14
76611;BME280;65503;48.534;9.062;2024-01-15T06:19:06;95849.97;;;1.12;65.37
76611;BME280;65503;48.534;9.062;2024-01-15T06:21:33;95848.78;;;1.21;64.95
76611;BME280;65503;48.534;9.062;2024-01-15T06:24:00;95848.78;;;1.21;65.13
76611;BME280;65503;48.534;9.062;2024-01-15T06:26:29;95848.78;;;1.21;64.58
76611;BME280;65503;48.534;9.062;2024-01-15T06:28:55;95850.38;;;1.42;64.36
76611;BME280;65503;48.534;9.062;2024-01-15T06:31:22;95851.53;;;1.65;62.83
76611;BME280;65503;48.534;9.062;2024-01-15T06:33:49;95840.78;;;1.62;62.50
76611;BME280;65503;48.534;9.062;2024-01-15T06:36:15;95840.00;;;1.61;62.35
76611;BME280;65503;48.534;9.062;2024-01-15T06:38:45;95834.38;;;1.78;61.74
76611;BME280;65503;48.534;9.062;2024-01-15T06:41:12;95837.22;;;1.56;61.97
76611;BME280;65503;48.534;9.062;2024-01-15T06:43:38;95831.22;;;1.76;62.11
76611;BME280;65503;48.534;9.062;2024-01-15T06:46:05;95829.78;;;1.86;61.64
76611;BME280;65503;48.534;9.062;2024-01-15T06:48:34;95820.41;;;1.92;61.24
76611;BME280;65503;48.534;9.062;2024-01-15T06:51:00;95822.38;;;1.96;60.46
76611;BME280;65503;48.534;9.062;2024-01-15T06:53:27;95817.56;;;2.00;60.43
76611;BME280;65503;48.534;9.062;2024-01-15T06:55:53;95824.34;;;2.01;59.96
76611;BME280;65503;48.534;9.062;2024-01-15T06:58:20;95817.56;;;2.00;60.12
76611;BME280;65503;48.534;9.062;2024-01-15T07:00:46;95819.59;;;1.98;59.93
76611;BME280;65503;48.534;9.062;2024-01-15T07:03:13;95813.78;;;1.96;59.83
76611;BME280;65503;48.534;9.062;2024-01-15T07:05:40;95811.19;;;2.02;59.45
76611;BME280;65503;48.534;9.062;2024-01-15T07:08:06;95802.78;;;2.00;59.54
76611;BME280;65503;48.534;9.062;2024-01-15T07:10:33;95798.41;;;2.01;59.82
76611;BME280;65503;48.534;9.062;2024-01-15T07:13:02;95796.63;;;2.01;60.04
76611;BME280;65503;48.534;9.062;2024-01-15T07:15:29;95786.03;;;2.03;59.96
76611;BME280;65503;48.534;9.062;2024-01-15T07:17:55;95786.03;;;2.03;59.76
76611;BME280;65503;48.534;9.062;2024-01-15T07:20:22;95783.44;;;2.03;59.83
76611;BME280;65503;48.534;9.062;2024-01-15T07:22:49;95786.09;;;1.77;59.98
76611;BME280;65503;48.534;9.062;2024-01-15T07:25:15;95792.50;;;1.87;59.34
76611;BME280;65503;48.534;9.062;2024-01-15T07:27:42;95792.88;;;1.91;59.73
76611;BME280;65503;48.534;9.062;2024-01-15T07:30:11;95792.84;;;1.97;59.27
76611;BME280;65503;48.534;9.062;2024-01-15T07:32:39;95800.63;;;1.97;58.30
76611;BME280;65503;48.534;9.062;2024-01-15T07:35:05;95800.50;;;1.66;59.97
76611;BME280;65503;48.534;9.062;2024-01-15T07:37:32;95791.41;;;1.24;60.71
76611;BME280;65503;48.534;9.062;2024-01-15T07:39:59;95793.38;;;0.96;61.10
76611;BME280;65503;48.534;9.062;2024-01-15T07:42:27;95781.78;;;1.57;60.17
76611;BME280;65503;48.534;9.062;2024-01-15T07:44:53;95792.13;;;1.71;60.00
76611;BME280;65503;48.534;9.062;2024-01-15T07:47:19;95786.44;;;2.00;58.57
76611;BME280;65503;48.534;9.062;2024-01-15T07:49:46;95780.50;;;1.93;58.24
76611;BME280;65503;48.534;9.062;2024-01-15T07:52:13;95785.25;;;1.96;57.32
76611;BME280;65503;48.534;9.062;2024-01-15T07:54:40;95791.69;;;1.87;58.34
76611;BME280;65503;48.534;9.062;2024-01-15T07:57:08;95780.53;;;1.80;58.01
76611;BME280;65503;48.534;9.062;2024-01-15T07:59:35;95785.78;;;1.53;58.92
76611;BME280;65503;48.534;9.062;2024-01-15T08:02:01;95784.94;;;1.73;57.96
76611;BME280;65503;48.534;9.062;2024-01-15T08:04:28;95789.31;;;1.65;57.61
76611;BME280;65503;48.534;9.062;2024-01-15T08:06:55;95782.22;;;1.28;58.84
76611;BME280;65503;48.534;9.062;2024-01-15T08:09:23;95787.34;;;1.67;58.30
76611;BME280;65503;48.534;9.062;2024-01-15T08:11:49;95789.94;;;1.54;57.93
76611;BME280;65503;48.534;9.062;2024-01-15T08:14:16;95782.50;;;1.84;57.42
76611;BME280;65503;48.534;9.062;2024-01-15T08:16:42;95780.97;;;1.70;57.49
76611;BME280;65503;48.534;9.062;2024-01-15T08:19:10;95773.84;;;1.26;58.79
76611;BME280;65503;48.534;9.062;2024-01-15T08:21:37;95763.41;;;1.65;57.37
76611;BME280;65503;48.534;9.062;2024-01-15T08:24:03;95775.00;;;1.56;57.95
76611;BME280;65503;48.534;9.062;2024-01-15T08:26:30;95769.38;;;1.73;58.03
76611;BME280;65503;48.534;9.062;2024-01-15T08:28:56;95755.88;;;1.57;57.42
76611;BME280;65503;48.534;9.062;2024-01-15T08:31:23;95754.56;;;1.93;56.31
76611;BME280;65503;48.534;9.062;2024-01-15T08:33:50;95769.75;;;1.83;57.13
76611;BME280;65503;48.534;9.062;2024-01-15T08:36:18;95769.66;;;2.09;56.33
76611;BME280;65503;48.534;9.062;2024-01-15T08:38:44;95773.06;;;2.10;55.12
76611;BME280;65503;48.534;9.062;2024-01-15T08:41:11;95777.78;;;1.48;56.61
76611;BME280;65503;48.534;9.062;2024-01-15T08:43:38;95782.59;;;1.38;57.37
76611;BME280;65503;48.534;9.062;2024-01-15T08:46:04;95790.59;;;1.37;57.63
76611;BME280;65503;48.534;9.062;2024-01-15T08:48:31;95790.19;;;1.46;57.24
76611;BME280;65503;48.534;9.062;2024-01-15T08:50:57;95799.28;;;1.82;56.56
76611;BME280;65503;48.534;9.062;2024-01-15T08:53:24;95780.81;;;2.16;55.26
76611;BME280;65503;48.534;9.062;2024-01-15T08:55:51;95786.88;;;1.84;55.16
76611;BME280;65503;48.534;9.062;2024-01-15T08:58:17;95781.22;;;2.13;54.45
76611;BME280;65503;48.534;9.062;2024-01-15T09:00:44;95783.88;;;2.44;54.39
76611;BME280;65503;48.534;9.062;2024-01-15T09:03:11;95777.31;;;1.91;56.27
76611;BME280;65503;48.534;9.062;2024-01-15T09:05:38;95778.78;;;2.18;55.00
76611;BME280;65503;48.534;9.062;2024-01-15T09:08:05;95785.69;;;2.37;55.10
76611;BME280;65503;48.534;9.062;2024-01-15T09:10:31;95786.50;;;1.87;55.67
76611;BME280;65503;48.534;9.062;2024-01-15T09:12:58;95788.59;;;1.32;57.96
76611;BME280;65503;48.534;9.062;2024-01-15T09:15:25;95786.34;;;1.62;57.28
76611;BME280;65503;48.534;9.062;2024-01-15T09:17:52;95785.22;;;2.09;55.87
76611;BME280;65503;48.534;9.062;2024-01-15T09:20:18;95788.00;;;2.07;55.82
76611;BME280;65503;48.534;9.062;2024-01-15T09:22:45;95782.94;;;1.75;56.25
76611;BME280;65503;48.534;9.062;2024-01-15T09:25:11;95774.50;;;1.92;56.45
76611;BME280;65503;48.534;9.062;2024-01-15T09:27:38;95777.31;;;1.84;55.90
76611;BME280;65503;48.534;9.062;2024-01-15T09:30:05;95768.88;;;2.02;55.75
76611;BME280;65503;48.534;9.062;2024-01-15T09:32:32;95751.66;;;2.21;54.78
76611;BME280;65503;48.534;9.062;2024-01-15T09:34:59;95762.56;;;2.29;54.56
76611;BME280;65503;48.534;9.062;2024-01-15T09:37:25;95763.78;;;2.65;53.60
76611;BME280;65503;48.534;9.062;2024-01-15T09:40:12;95759.91;;;2.42;53.94
76611;BME280;65503;48.534;9.062;2024-01-15T09:42:42;95755.75;;;2.73;53.07
76611;BME280;65503;48.534;9.062;2024-01-15T09:45:09;95758.81;;;2.88;53.46
76611;BME280;65503;48.534;9.062;2024-01-15T09:47:37;95748.84;;;2.85;52.93
76611;BME280;65503;48.534;9.062;2024-01-15T09:50:08;95754.47;;;2.82;52.79
76611;BME280;65503;48.534;9.062;2024-01-15T09:52:36;95752.31;;;2.79;52.90
76611;BME280;65503;48.534;9.062;2024-01-15T09:55:03;95746.91;;;2.74;53.19
76611;BME280;65503;48.534;9.062;2024-01-15T09:57:32;95741.44;;;2.57;53.92
76611;BME280;65503;48.534;9.062;2024-01-15T10:00:01;95742.91;;;2.78;53.23
76611;BME280;65503;48.534;9.062;2024-01-15T10:02:30;95744.00;;;2.95;52.68
76611;BME280;65503;48.534;9.062;2024-01-15T10:04:57;95750.69;;;3.03;52.91
76611;BME280;65503;48.534;9.062;2024-01-15T10:07:25;95739.88;;;3.49;51.55
76611;BME280;65503;48.534;9.062;2024-01-15T10:09:51;95749.03;;;3.58;51.20
76611;BME280;65503;48.534;9.062;2024-01-15T10:12:18;95738.78;;;3.81;50.59
76611;BME280;65503;48.534;9.062;2024-01-15T10:14:45;95734.00;;;2.92;50.99
76611;BME280;65503;48.534;9.062;2024-01-15T10:17:13;95736.88;;;2.53;52.83
76611;BME280;65503;48.534;9.062;2024-01-15T10:19:40;95727.13;;;3.04;52.19
76611;BME280;65503;48.534;9.062;2024-01-15T10:22:10;95727.38;;;3.21;51.95
76611;BME280;65503;48.534;9.062;2024-01-15T10:24:37;95714.03;;;3.54;50.74
76611;BME280;65503;48.534;9.062;2024-01-15T10:27:07;95707.47;;;3.08;52.56
76611;BME280;65503;48.534;9.062;2024-01-15T10:29:35;95709.25;;;3.32;51.52
76611;BME280;65503;48.534;9.062;2024-01-15T10:32:06;95702.88;;;2.61;52.75
76611;BME280;65503;48.534;9.062;2024-01-15T10:34:32;95702.81;;;2.42;53.82
76611;BME280;65503;48.534;9.062;2024-01-15T10:36:59;95698.88;;;2.33;54.39
76611;BME280;65503;48.534;9.062;2024-01-15T10:39:26;95696.09;;;2.28;54.43
76611;BME280;65503;48.534;9.062;2024-01-15T10:41:52;95701.66;;;2.38;53.91
76611;BME280;65503;48.534;9.062;2024-01-15T10:44:19;95699.09;;;2.57;54.42
76611;BME280;65503;48.534;9.062;2024-01-15T10:46:46;95688.72;;;2.57;53.90
76611;BME280;65503;48.534;9.062;2024-01-15T10:49:13;95694.31;;;2.60;53.68
76611;BME280;65503;48.534;9.062;2024-01-15T10:51:41;95696.34;;;2.52;53.64
76611;BME280;65503;48.534;9.062;2024-01-15T10:54:09;95695.88;;;1.98;55.51
76611;BME280;65503;48.534;9.062;2024-01-15T10:56:38;95699.00;;;2.14;56.13
76611;BME280;65503;48.534;9.062;2024-01-15T10:59:05;95695.41;;;2.71;54.33
76611;BME280;65503;48.534;9.062;2024-01-15T11:01:34;95694.84;;;2.37;54.48
76611;BME280;65503;48.534;9.062;2024-01-15T11:04:01;95699.97;;;2.51;54.79
76611;BME280;65503;48.534;9.062;2024-01-15T11:06:28;95705.50;;;2.61;55.21
76611;BME280;65503;48.534;9.062;2024-01-15T11:09:07;95705.63;;;2.34;55.80
76611;BME280;65503;48.534;9.062;2024-01-15T11:11:40;95698.81;;;1.71;57.38
76611;BME280;65503;48.534;9.062;2024-01-15T11:14:07;95719.16;;;2.12;57.03
76611;BME280;65503;48.534;9.062;2024-01-15T11:16:56;95718.59;;;2.72;55.80
76611;BME280;65503;48.534;9.062;2024-01-15T11:19:22;95717.28;;;2.25;57.63
76611;BME280;65503;48.534;9.062;2024-01-15T11:21:49;95700.13;;;2.56;57.21
76611;BME280;65503;48.534;9.062;2024-01-15T11:24:36;95702.22;;;2.09;57.86
76611;BME280;65503;48.534;9.062;2024-01-15T11:27:03;95701.78;;;2.12;57.90
76611;BME280;65503;48.534;9.062;2024-01-15T11:29:32;95698.03;;;2.39;58.19
76611;BME280;65503;48.534;9.062;2024-01-15T11:32:05;95704.66;;;2.35;57.85
76611;BME280;65503;48.534;9.062;2024-01-15T11:37:26;95682.47;;;1.63;61.20
76611;BME280;65503;48.534;9.062;2024-01-15T11:39:54;95687.88;;;1.55;61.73
76611;BME280;65503;48.534;9.062;2024-01-15T11:42:22;95686.84;;;1.70;61.16
76611;BME280;65503;48.534;9.062;2024-01-15T11:44:49;95688.47;;;1.57;62.44
76611;BME280;65503;48.534;9.062;2024-01-15T11:47:30;95699.91;;;1.30;64.22
76611;BME280;65503;48.534;9.062;2024-01-15T11:50:03;95699.84;;;2.01;62.55
76611;BME280;65503;48.534;9.062;2024-01-15T11:52:35;95703.38;;;1.69;64.07
76611;BME280;65503;48.534;9.062;2024-01-15T11:55:19;95691.50;;;1.99;63.23
76611;BME280;65503;48.534;9.062;2024-01-15T11:57:53;95691.06;;;2.02;62.80
76611;BME280;65503;48.534;9.062;2024-01-15T12:00:22;95680.53;;;2.28;62.01
76611;BME280;65503;48.534;9.062;2024-01-15T12:02:49;95687.78;;;2.20;62.15
76611;BME280;65503;48.534;9.062;2024-01-15T12:05:18;95684.28;;;2.01;62.60
76611;BME280;65503;48.534;9.062;2024-01-15T12:07:47;95687.81;;;2.13;62.49
76611;BME280;65503;48.534;9.062;2024-01-15T12:10:16;95688.22;;;2.73;61.02
76611;BME280;65503;48.534;9.062;2024-01-15T12:13:13;95694.97;;;2.74;60.05
76611;BME280;65503;48.534;9.062;2024-01-15T12:15:42;95685.50;;;2.86;59.23
76611;BME280;65503;48.534;9.062;2024-01-15T12:18:10;95685.19;;;2.76;59.87
76611;BME280;65503;48.534;9.062;2024-01-15T12:20:39;95686.59;;;2.97;59.21
76611;BME280;65503;48.534;9.062;2024-01-15T12:23:06;95685.59;;;3.41;57.77
76611;BME280;65503;48.534;9.062;2024-01-15T12:25:35;95690.94;;;2.84;59.69
76611;BME280;65503;48.534;9.062;2024-01-15T12:28:02;95691.03;;;2.08;61.92
76611;BME280;65503;48.534;9.062;2024-01-15T12:30:30;95687.34;;;1.40;65.09
76611;BME280;65503;48.534;9.062;2024-01-15T12:33:02;95686.53;;;1.40;64.82
76611;BME280;65503;48.534;9.062;2024-01-15T12:35:30;95678.13;;;1.44;65.36
76611;BME280;65503;48.534;9.062;2024-01-15T12:37:57;95674.66;;;1.06;66.93
76611;BME280;65503;48.534;9.062;2024-01-15T12:40:23;95672.59;;;1.34;67.41
76611;BME280;65503;48.534;9.062;2024-01-15T12:42:50;95677.56;;;1.42;68.17
76611;BME280;65503;48.534;9.062;2024-01-15T12:45:17;95680.13;;;2.31;66.43
76611;BME280;65503;48.534;9.062;2024-01-15T12:47:44;95682.16;;;1.85;67.57
76611;BME280;65503;48.534;9.062;2024-01-15T12:50:12;95686.66;;;2.09;67.00
76611;BME280;65503;48.534;9.062;2024-01-15T12:52:46;95683.00;;;1.79;66.94
76611;BME280;65503;48.534;9.062;2024-01-15T12:55:13;95684.00;;;1.78;68.29
76611;BME280;65503;48.534;9.062;2024-01-15T12:57:39;95678.09;;;1.57;68.69
76611;BME280;65503;48.534;9.062;2024-01-15T13:00:06;95684.22;;;2.14;66.06
76611;BME280;65503;48.534;9.062;2024-01-15T13:02:40;95688.97;;;1.86;68.50
76611;BME280;65503;48.534;9.062;2024-01-15T13:05:09;95686.69;;;1.51;70.16
76611;BME280;65503;48.534;9.062;2024-01-15T13:07:38;95679.09;;;0.79;73.74
76611;BME280;65503;48.534;9.062;2024-01-15T13:10:06;95679.69;;;1.58;71.41
76611;BME280;65503;48.534;9.062;2024-01-15T13:12:33;95683.44;;;1.69;71.01
76611;BME280;65503;48.534;9.062;2024-01-15T13:15:00;95681.19;;;1.86;69.54